Lafayette, LA

1:52 PM CST on December 26, 2014 (GMT -0600)
River Ranch Subdivision | Change Station
CLOSE
Current Station
Personal Weather Station
Location: Lafayette, LA
Elevation: 31 ft
Nearby Weather Stations

Elev 31 ft 30.17 °N, 92.04 °W | Updated 20 seconds ago

Overcast
Overcast
59.7 °F
Feels Like 59.7 °F
N
0.0
Wind Variable Wind from South
Gusts 5.0 mph

Today
High -- | Low -- °F
--% Chance of Precip.
Yesterday
High -- | Low -- °F
Precip. -- in
7:02 AM 5:14 PM
Waxing Crescent, 28% visible
Pressure 30.11 in
Visibility 5.0 miles
Clouds Scattered Clouds 2300 ft
Overcast 3300 ft
Dew Point 57 °F
Humidity 92%
Rainfall 0.00 in
Snow Depth Not available.
UV 0.0 out of 12
Pollen 4.20 out of 12
Air Quality Not available.
Flu Activity Not available.
METAR KLFT 261853Z 12004KT 5SM BR SCT023 OVC033 14/12 A3011 RMK AO2 RAB11E24 SLP196 P0001 T01440122

More Conditions Fewer Conditions

Pressure 30.11 in
Visibility 5.0 miles
Clouds Scattered Clouds 2300 ft
Overcast 3300 ft
Dew Point 57 °F
Humidity 92%
Rainfall 0.00 in
Snow Depth Not available.
UV 0.0 out of 12
Pollen 4.20 out of 12
Air Quality Not available.
Flu Activity Not available.
METAR KLFT 261853Z 12004KT 5SM BR SCT023 OVC033 14/12 A3011 RMK AO2 RAB11E24 SLP196 P0001 T01440122

More Conditions Fewer Conditions

10-Day Weather Forecast

Almanac

Astronomy

Dec. 26, 2014 Rise Set
Actual Time
Civil Twilight
Nautical Twilight
Astronomical Twilight
Moon
Length of Visible Light
Length of Day
Tomorrow will be .
, % of the Moon is Illuminated

Today's Extremes

State Highs State Lows

Community

WunderPhotos

Upload Photos

1,780,680 photos uploaded!

WunderBlogs® & News

Nearby

Air Quality

  Air Quality AQ Index Pollutant
Not available.

Snow Depth

Station Depth Elevation

Earthquake Activity

City Distance Mag. Time & Date
Minimum magnitude displayed is 2.5.

Coastal Water Temperatures

Place Temperature

Nearby Weather Stations